Forside
METAR-TAF:

METAR-TAF

Lufthavne :

Mount Pleasant Municipal Airport

Mount Pleasant, Iowa, USA

Breddekreds: 40-56-48N, længdekreds: 091-30-40W, højde: 224 m

Aktuelle vejr

Denne rapport blev lavet for 18 minutter siden, kl. 22:35 UTC
Vind stille
Temperatur 7°C
Fugtighed 66%
Tryk 1018 hPa
Sigt: 16.1 km
skyfri

METAR: KMPZ 162235Z AUTO 00000KT 10SM CLR 07/01 A3005 RMK AO2

Tid: 16:53 (22:53 UTC)


TAF: fraværende

Vejrobservationer og prognoser fra mere end 4000 lufthavne (METAR og TAF).

De gule og røde prikker repræsenterer de meteorologiske stationer.

Flyt musen over at se navnet på stationen.

Så klik over at se vejr observationer og prognoser.

At skifte det kort: Klik på de grønne knapper med et sort kors for at zoome ind; på den grønne knap med en bindestreg for at zoome ud; eller på de grønne pile for tilstødende kort.


METAR-TAF: